DAAGDAUG

Guest
Details From DAAG - Alger Houari Boumediene
To DAUG - NOUMERAT
Flight Number -
Tags generated
Created
Modified
Stats Distance 282 nm / 522 km
Max Altitude 31,600 ft / 9,632 m
Waypoints 4
Social Downloads 0
Likes 0
Share VATSIM

Download

Looking for another format? Having issues loading an existing format? Contact us
Advertisement - Login to hide

Notes

Basic altitude profile: - Ascent Rate: 2500ft/min - Ascent Speed: 250kts - Cruise Altitude: 35000ft - Cruise Speed: 420kts - Descent Rate: 1500ft/min - Descent Speed: 250kts

Route

DAAG BSA UB726 KAHIL DAUG

ID Type Via Altitude Latitude Longitude Leg Dist Tot Dist Heading (true) Name
O DAAG APT - 0 ft / 0 m 36.69752˚ 3.21308˚ - 0 nm - Alger Houari Boumediene
BSA VOR - 31,600 ft / 9,632 m 35.51528˚ 4.40167˚ 91 nm 91 nm 141° / 141° BOU SAADA VOR-DME
KAHIL FIX UB726 (AWY-HI) 24,500 ft / 7,468 m 34.08333˚ 4.11667˚ 87 nm 178 nm 189° / 189° -
O DAUG APT - 0 ft / 0 m 32.38530˚ 3.80181˚ 103 nm 281 nm 189° / 189° NOUMERAT

Altitude Profile

Advertisement - Login to hide

Weather


0- 5 10 15 20 25 30 35+ Temperature / ° C

Clouds and Precipitation
Forecast for 2017-12-15 00:00 UTC. Updated 2 hours ago

Ground ~20,000 ft ~40,000 ft Winds

DAAG

Details ICAO DAAG (ALG)
Name Alger Houari Boumediene
Region Algeria
Timezone Africa/Algiers (UTC+1.0)
Stats Elevation 82 ft / 25 m (AMSL)
Location 36.697521° 3.213079°
Runways 2
Magnetic Variation 1.057° E

METAR

DAAG 142300Z 17006KT CAVOK 08/07 Q1018

Decode

TAF

TAF DAAG 141700Z 1418/1518 VRB02KT CAVOK BECMG 1508/1511 26010KT

Decode

Departure Runways

ID Width Length Bearing (true) Bearing (mag) Surface Threshold Offset Overrun Length
05 197 ft / 60 m 11,459 ft / 3,493 m 52.87° 51.81° Asphalt 0 ft / 0 m 0 ft / 0 m
09 148 ft / 45 m 11,442 ft / 3,487 m 91.75° 90.69° Asphalt 0 ft / 0 m 1,017 ft / 310 m
23 197 ft / 60 m 11,459 ft / 3,493 m 232.89° 231.83° Asphalt 0 ft / 0 m 0 ft / 0 m
27 148 ft / 45 m 11,442 ft / 3,487 m 271.78° 270.72° Asphalt 0 ft / 0 m 0 ft / 0 m

DAUG

Details ICAO DAUG (GHA)
Name NOUMERAT
Region Algeria
Timezone Africa/Algiers (UTC+1.0)
Stats Elevation 1,512 ft / 461 m (AMSL)
Location 32.385303° 3.801811°
Runways 2
Magnetic Variation 1.019° E

METAR

DAUG 142300Z 00000KT CAVOK 10/M00 Q1023

Decode

TAF

TAF DAUG 141700Z 1418/1518 VRB02KT CAVOK PROB30 TEMPO 1512/1518 FEW036CB

Decode

Destination Runways

ID Width Length Bearing (true) Bearing (mag) Surface Threshold Offset Overrun Length
12 197 ft / 60 m 10,148 ft / 3,093 m 122.57° 121.55° Asphalt 0 ft / 0 m 300 ft / 91 m
18 148 ft / 45 m 7,914 ft / 2,412 m 182.48° 181.46° Asphalt 0 ft / 0 m 0 ft / 0 m
30 197 ft / 60 m 10,148 ft / 3,093 m 302.58° 301.56° Asphalt 0 ft / 0 m 0 ft / 0 m
36 148 ft / 45 m 7,914 ft / 2,412 m 2.48° 1.46° Asphalt 0 ft / 0 m 0 ft / 0 m

Popular Alternatives